Time;durP1;ratioP1;P1;durP2;ratioP2;P2;SDS_P1;SDS_P2;PMS_P1;PMS_P2;Temp;Humidity;BMP_temperature;BMP_pressure;BME280_temperature;BME280_humidity;BME280_pressure;Samples;Min_cycle;Max_cycle;Signal;HPM_P1;HPM_P2
2022/10/22 00:00:16;;;;;;;0.10;0.10;;;;;;;16.57;80.44;98943.31;7372699;19;20033;-55
2022/10/22 00:02:42;;;;;;;0.00;0.00;;;;;;;16.56;80.50;98946.91;7372574;19;20021;-57
2022/10/22 00:05:08;;;;;;;0.10;0.10;;;;;;;16.54;80.86;98951.47;7368512;19;20014;-57
2022/10/22 00:07:34;;;;;;;0.00;0.00;;;;;;;16.54;80.81;98948.81;7373246;19;20683;-57
2022/10/22 00:09:59;;;;;;;0.00;0.00;;;;;;;16.55;80.40;98956.59;7372596;19;20003;-56
2022/10/22 00:12:25;;;;;;;0.00;0.00;;;;;;;16.55;80.72;98961.03;7371445;19;20019;-57
2022/10/22 00:14:51;;;;;;;0.05;0.05;;;;;;;16.54;80.88;98954.94;7372080;19;20006;-56
2022/10/22 00:17:17;;;;;;;0.08;0.08;;;;;;;16.56;80.40;98962.72;7371536;19;20393;-57
2022/10/22 00:19:43;;;;;;;0.00;0.00;;;;;;;16.49;79.96;98951.81;7370879;19;20474;-57
2022/10/22 00:22:09;;;;;;;0.00;0.00;;;;;;;16.56;79.96;98973.25;7371855;19;20014;-57
2022/10/22 00:24:36;;;;;;;0.10;0.10;;;;;;;16.56;79.64;98967.97;7370863;19;20011;-56
2022/10/22 00:27:02;;;;;;;0.00;0.00;;;;;;;16.53;80.11;98968.22;7371003;19;20774;-57
2022/10/22 00:29:28;;;;;;;0.00;0.00;;;;;;;16.52;79.73;98974.44;7371659;19;20026;-55
2022/10/22 00:31:53;;;;;;;0.10;0.10;;;;;;;16.50;79.77;98974.56;7366298;19;20037;-57
2022/10/22 00:34:21;;;;;;;0.00;0.00;;;;;;;16.51;79.71;98980.66;7360393;19;20147;-56
2022/10/22 00:36:50;;;;;;;0.00;0.00;;;;;;;16.48;79.25;98973.00;7364615;19;20006;-57
2022/10/22 00:39:17;;;;;;;0.00;0.00;;;;;;;16.31;79.53;98954.00;7365300;19;20018;-57
2022/10/22 00:41:44;;;;;;;0.10;0.10;;;;;;;16.43;79.40;98983.88;7362896;19;20591;-57
2022/10/22 00:44:47;;;;;;;0.10;0.10;;;;;;;16.44;78.54;98982.09;7364529;19;20039;-57
2022/10/22 00:47:14;;;;;;;0.00;0.00;;;;;;;16.37;79.22;98984.31;7260546;19;2004306;-56
2022/10/22 00:49:40;;;;;;;0.00;0.00;;;;;;;16.33;79.44;98989.00;7364681;19;20033;-57
2022/10/22 00:52:06;;;;;;;0.00;0.00;;;;;;;16.31;79.60;98996.16;7363742;19;20002;-58
2022/10/22 00:54:32;;;;;;;0.00;0.00;;;;;;;16.31;78.96;98998.78;7362483;19;20095;-57
2022/10/22 00:56:58;;;;;;;0.10;0.10;;;;;;;16.28;79.30;98995.56;7362748;19;20006;-57
2022/10/22 00:59:24;;;;;;;0.08;0.08;;;;;;;16.28;79.51;99020.09;7363247;19;20029;-58
2022/10/22 01:01:51;;;;;;;0.00;0.00;;;;;;;16.27;78.67;99018.44;7362163;19;20007;-57
2022/10/22 01:04:17;;;;;;;0.05;0.05;;;;;;;16.24;79.00;99021.28;7365067;19;20117;-57
2022/10/22 01:06:42;;;;;;;0.08;0.08;;;;;;;16.20;79.55;99024.22;7360180;19;20009;-57
2022/10/22 01:09:11;;;;;;;0.00;0.00;;;;;;;16.19;79.65;99039.19;7364786;19;22179;-56
2022/10/22 01:11:55;;;;;;;0.00;0.00;;;;;;;16.16;79.70;99031.50;7363583;19;20014;-57
2022/10/22 01:14:29;;;;;;;0.00;0.00;;;;;;;16.17;79.35;99041.13;7363685;19;20035;-57
2022/10/22 01:17:27;;;;;;;0.10;0.10;;;;;;;16.14;79.26;99040.47;7360010;19;20895;-57
2022/10/22 01:20:09;;;;;;;0.00;0.00;;;;;;;16.08;80.05;99049.66;7259821;19;2004549;-58
2022/10/22 01:22:59;;;;;;;0.00;0.00;;;;;;;16.08;79.59;99057.56;7362803;19;20024;-57
2022/10/22 01:25:35;;;;;;;0.10;0.10;;;;;;;16.04;79.74;99061.38;7363656;19;20953;-57
2022/10/22 01:28:27;;;;;;;0.00;0.00;;;;;;;16.02;79.68;99058.00;7360553;19;20002;-58
2022/10/22 01:30:56;;;;;;;0.08;0.08;;;;;;;15.90;79.51;99051.81;7261597;19;2004309;-58
2022/10/22 01:33:24;;;;;;;0.05;0.05;;;;;;;15.96;80.35;99063.69;7360250;19;20025;-56
2022/10/22 01:35:49;;;;;;;0.00;0.00;;;;;;;15.93;79.74;99075.28;7363396;19;20070;-57
2022/10/22 01:38:19;;;;;;;0.00;0.00;;;;;;;15.93;80.22;99079.72;7357900;19;20010;-56
2022/10/22 01:40:46;;;;;;;0.00;0.00;;;;;;;15.90;79.87;99083.41;7361506;19;20454;-58
2022/10/22 01:43:12;;;;;;;0.10;0.10;;;;;;;15.86;79.93;99084.56;7358257;19;20006;-55
2022/10/22 01:45:45;;;;;;;0.08;0.08;;;;;;;15.90;79.64;99087.81;7361462;19;20029;-56
2022/10/22 01:48:39;;;;;;;0.00;0.00;;;;;;;15.79;79.50;99078.88;7361015;19;20898;-57
2022/10/22 01:51:14;;;;;;;0.10;0.10;;;;;;;15.88;79.59;99092.38;7261654;19;2004312;-57
2022/10/22 01:53:49;;;;;;;0.10;0.10;;;;;;;15.85;79.96;99109.19;7363871;19;20089;-57
2022/10/22 01:56:35;;;;;;;0.00;0.00;;;;;;;15.85;79.57;99100.47;7362721;19;20014;-57
2022/10/22 01:59:25;;;;;;;0.00;0.00;;;;;;;15.81;79.50;99102.47;7353631;19;20030;-56
2022/10/22 02:02:16;;;;;;;0.00;0.00;;;;;;;15.77;79.53;99106.28;7358973;19;20029;-57
2022/10/22 02:05:00;;;;;;;0.00;0.00;;;;;;;15.76;79.71;99105.44;7361684;19;20003;-56
2022/10/22 02:07:31;;;;;;;0.00;0.00;;;;;;;15.73;79.81;99116.16;7360865;19;20006;-58
2022/10/22 02:09:58;;;;;;;0.00;0.00;;;;;;;15.71;79.55;99115.44;7359243;19;20033;-57
2022/10/22 02:12:28;;;;;;;0.10;0.10;;;;;;;15.57;79.75;99097.09;7362236;19;20933;-57
2022/10/22 02:14:54;;;;;;;0.00;0.00;;;;;;;15.65;80.38;99107.94;7361186;19;20343;-57
2022/10/22 02:17:21;;;;;;;0.03;0.03;;;;;;;15.64;80.35;99121.22;7362681;19;20107;-57
2022/10/22 02:19:56;;;;;;;0.10;0.10;;;;;;;15.63;79.82;99120.38;7359391;19;20018;-57
2022/10/22 02:22:23;;;;;;;0.00;0.00;;;;;;;15.58;80.03;99120.66;7359883;19;20082;-58
2022/10/22 02:24:49;;;;;;;0.00;0.00;;;;;;;15.56;80.41;99119.06;7359896;19;20014;-55
2022/10/22 02:27:27;;;;;;;0.00;0.00;;;;;;;15.55;80.67;99126.13;7361026;19;20014;-56
2022/10/22 02:30:03;;;;;;;0.00;0.00;;;;;;;15.54;80.55;99115.72;7361330;19;20014;-57
2022/10/22 02:32:35;;;;;;;0.00;0.00;;;;;;;15.53;80.19;99130.66;7361438;19;20014;-58
2022/10/22 02:35:02;;;;;;;0.00;0.00;;;;;;;15.52;80.17;99125.50;7361617;19;20534;-57
2022/10/22 02:37:28;;;;;;;0.00;0.00;;;;;;;15.52;80.56;99133.41;7360488;19;20111;-57
2022/10/22 02:39:55;;;;;;;0.00;0.00;;;;;;;15.51;80.10;99155.38;7362067;19;20018;-57
2022/10/22 02:42:23;;;;;;;0.05;0.05;;;;;;;15.50;80.56;99135.28;7359743;19;20027;-57
2022/10/22 02:44:48;;;;;;;0.00;0.00;;;;;;;15.48;80.65;99132.75;7362000;19;20006;-58
2022/10/22 02:47:13;;;;;;;0.00;0.00;;;;;;;15.42;80.43;99127.09;7358127;19;20022;-58
2022/10/22 02:49:39;;;;;;;0.00;0.00;;;;;;;15.47;80.46;99135.50;7360856;19;20774;-57
2022/10/22 02:52:04;;;;;;;0.00;0.00;;;;;;;15.34;80.68;99118.84;7357346;19;20020;-57
2022/10/22 02:54:29;;;;;;;0.10;0.10;;;;;;;15.45;80.12;99140.84;7359289;19;20022;-58
2022/10/22 02:56:55;;;;;;;0.00;0.00;;;;;;;15.44;79.97;99130.44;7361676;19;20010;-56
2022/10/22 02:59:20;;;;;;;0.00;0.00;;;;;;;15.42;80.65;99142.88;7359668;19;20014;-57
2022/10/22 03:01:46;;;;;;;0.00;0.00;;;;;;;15.41;80.47;99134.13;7362617;19;20002;-56
2022/10/22 03:04:11;;;;;;;0.00;0.00;;;;;;;15.40;80.27;99150.00;7350717;19;20018;-56
2022/10/22 03:06:36;;;;;;;0.00;0.00;;;;;;;15.36;80.52;99144.13;7361438;19;20086;-56
2022/10/22 03:09:02;;;;;;;0.00;0.00;;;;;;;15.26;80.69;99132.53;7361579;19;20015;-57
2022/10/22 03:11:27;;;;;;;0.10;0.10;;;;;;;15.31;80.30;99149.69;7359625;19;20030;-58
2022/10/22 03:13:53;;;;;;;0.00;0.00;;;;;;;15.31;80.36;99157.59;7360541;19;20049;-57
2022/10/22 03:16:18;;;;;;;0.10;0.10;;;;;;;15.30;80.30;99150.59;7360349;19;20041;-58
2022/10/22 03:18:43;;;;;;;0.00;0.00;;;;;;;15.24;79.99;99156.28;7357815;19;20010;-58
2022/10/22 03:21:19;;;;;;;0.00;0.00;;;;;;;15.24;79.79;99151.03;7354144;19;20015;-57
2022/10/22 03:23:46;;;;;;;0.00;0.00;;;;;;;15.25;79.97;99163.22;7361734;19;20015;-56
2022/10/22 03:26:13;;;;;;;0.00;0.00;;;;;;;15.23;79.77;99175.66;7360953;19;20844;-57
2022/10/22 03:28:40;;;;;;;0.10;0.10;;;;;;;15.19;79.71;99158.38;7358078;19;20033;-56
2022/10/22 03:31:05;;;;;;;0.00;0.00;;;;;;;15.19;80.03;99174.16;7361757;19;20465;-58
2022/10/22 03:33:31;;;;;;;0.00;0.00;;;;;;;15.19;79.33;99168.91;7361244;19;20037;-58
2022/10/22 03:35:57;;;;;;;0.00;0.00;;;;;;;15.02;79.79;99166.53;7361402;19;20030;-57
2022/10/22 03:38:22;;;;;;;0.00;0.00;;;;;;;15.11;79.93;99181.72;7361000;19;20470;-59
2022/10/22 03:40:48;;;;;;;0.00;0.00;;;;;;;15.08;79.38;99197.69;7359813;19;20015;-57
2022/10/22 03:43:14;;;;;;;0.00;0.00;;;;;;;15.01;79.95;99191.16;7360583;19;20458;-58
2022/10/22 03:45:39;;;;;;;0.00;0.00;;;;;;;15.01;79.92;99199.03;7360110;19;20010;-57
2022/10/22 03:48:05;;;;;;;0.00;0.00;;;;;;;14.89;79.54;99186.69;7362400;19;20018;-58
2022/10/22 03:50:30;;;;;;;0.00;0.00;;;;;;;14.88;79.44;99200.75;7360875;19;20713;-59
2022/10/22 03:52:57;;;;;;;0.05;0.05;;;;;;;14.93;79.61;99209.19;7361566;19;20007;-58
2022/10/22 03:55:23;;;;;;;0.00;0.00;;;;;;;14.90;79.47;99215.50;7350734;19;20745;-57
2022/10/22 03:57:48;;;;;;;0.05;0.05;;;;;;;14.81;79.44;99218.72;7360059;19;20074;-57
2022/10/22 04:00:14;;;;;;;0.00;0.00;;;;;;;14.85;79.41;99227.22;7359576;19;20421;-58
2022/10/22 04:02:40;;;;;;;0.00;0.00;;;;;;;14.81;79.53;99215.25;7359714;19;20011;-58
2022/10/22 04:05:05;;;;;;;0.00;0.00;;;;;;;14.78;79.54;99232.88;7359901;19;20010;-58
2022/10/22 04:07:31;;;;;;;0.00;0.00;;;;;;;14.74;79.79;99220.88;7364529;19;20006;-58
2022/10/22 04:09:56;;;;;;;0.00;0.00;;;;;;;14.73;79.55;99234.97;7368087;19;20010;-58
2022/10/22 04:12:22;;;;;;;0.10;0.10;;;;;;;14.71;79.42;99236.00;7365382;19;20710;-57
2022/10/22 04:14:47;;;;;;;0.00;0.00;;;;;;;14.68;79.72;99231.78;7368027;19;20034;-58
2022/10/22 04:17:12;;;;;;;0.00;0.00;;;;;;;14.66;79.58;99243.34;7366268;19;20370;-58
2022/10/22 04:19:38;;;;;;;0.00;0.00;;;;;;;14.62;79.49;99247.09;7365651;19;20011;-58
2022/10/22 04:22:03;;;;;;;0.00;0.00;;;;;;;14.59;79.23;99227.09;7366601;19;20021;-58
2022/10/22 04:24:30;;;;;;;0.00;0.00;;;;;;;14.55;79.57;99244.00;7366102;19;20373;-58
2022/10/22 04:26:56;;;;;;;0.00;0.00;;;;;;;14.41;79.59;99230.84;7364559;19;20031;-58
2022/10/22 04:29:22;;;;;;;0.05;0.05;;;;;;;14.44;79.54;99238.53;7366161;19;20014;-58
2022/10/22 04:31:48;;;;;;;0.10;0.10;;;;;;;14.46;79.51;99253.25;7366912;19;20636;-59
2022/10/22 04:34:13;;;;;;;0.00;0.00;;;;;;;14.42;79.47;99250.91;7366007;19;20018;-58
2022/10/22 04:36:39;;;;;;;0.00;0.00;;;;;;;14.44;79.22;99260.38;7367165;19;20117;-59
2022/10/22 04:39:04;;;;;;;0.00;0.00;;;;;;;14.36;79.59;99251.31;7364032;19;20067;-58
2022/10/22 04:41:36;;;;;;;0.05;0.05;;;;;;;14.34;79.39;99253.16;7367518;19;20029;-58
2022/10/22 04:44:03;;;;;;;0.00;0.00;;;;;;;14.35;79.80;99262.75;7364654;19;20033;-56
2022/10/22 04:46:32;;;;;;;0.00;0.00;;;;;;;14.35;79.39;99265.38;7367621;19;20022;-59
2022/10/22 04:48:57;;;;;;;0.00;0.00;;;;;;;14.30;79.34;99262.19;7362945;19;20010;-57
2022/10/22 04:51:25;;;;;;;0.00;0.00;;;;;;;14.30;79.05;99296.31;7367603;19;20022;-59
2022/10/22 04:53:51;;;;;;;0.08;0.08;;;;;;;14.26;79.10;99288.63;7365014;19;20385;-59
2022/10/22 04:56:21;;;;;;;0.00;0.00;;;;;;;14.23;79.47;99283.53;7367740;19;20164;-59
2022/10/22 04:58:54;;;;;;;0.00;0.00;;;;;;;14.20;79.25;99289.00;7366813;19;20014;-59
2022/10/22 05:01:23;;;;;;;0.00;0.00;;;;;;;14.17;79.46;99289.16;7366252;19;20014;-58
2022/10/22 05:03:50;;;;;;;0.00;0.00;;;;;;;14.15;79.11;99298.09;7362910;19;20073;-57
2022/10/22 05:06:16;;;;;;;0.00;0.00;;;;;;;14.05;79.38;99299.56;7326817;19;20025;-58
2022/10/22 05:08:42;;;;;;;0.10;0.10;;;;;;;14.09;79.11;99311.56;7366085;19;20648;-59
2022/10/22 05:11:20;;;;;;;0.00;0.00;;;;;;;14.11;79.21;99321.03;7363847;19;20022;-59
2022/10/22 05:13:45;;;;;;;;;;;;;;;14.09;79.26;99322.06;7368292;19;21772;-59
2022/10/22 05:16:12;;;;;;;0.00;0.00;;;;;;;14.05;78.93;99325.81;7365623;19;22241;-57
2022/10/22 05:18:39;;;;;;;0.00;0.00;;;;;;;14.02;78.80;99332.06;7365061;19;20529;-58
2022/10/22 05:21:09;;;;;;;0.08;0.08;;;;;;;13.98;78.84;99341.91;7363661;19;20018;-57
2022/10/22 05:23:34;;;;;;;0.00;0.00;;;;;;;13.95;79.35;99336.00;7362756;19;20089;-57
2022/10/22 05:26:08;;;;;;;0.00;0.00;;;;;;;13.94;78.98;99353.53;7368254;19;21211;-58
2022/10/22 05:28:34;;;;;;;0.00;0.00;;;;;;;13.89;79.09;99357.34;7360378;19;20014;-56
2022/10/22 05:31:01;;;;;;;0.00;0.00;;;;;;;13.86;78.93;99349.66;7367494;19;20022;-56
2022/10/22 05:33:28;;;;;;;0.00;0.00;;;;;;;13.86;78.89;99352.28;7361071;19;20040;-58
2022/10/22 05:35:54;;;;;;;0.00;0.00;;;;;;;13.84;78.69;99354.13;7362034;19;20015;-59
2022/10/22 05:38:20;;;;;;;0.00;0.00;;;;;;;13.76;78.81;99351.97;7365187;19;20018;-59
2022/10/22 05:40:45;;;;;;;0.03;0.03;;;;;;;13.77;78.57;99349.25;7363520;19;20109;-58
2022/10/22 05:43:11;;;;;;;0.00;0.00;;;;;;;13.75;78.68;99361.63;7365967;19;20011;-58
2022/10/22 05:45:41;;;;;;;0.00;0.00;;;;;;;13.70;78.48;99389.88;7358989;19;20014;-59
2022/10/22 05:48:08;;;;;;;0.00;0.00;;;;;;;13.68;78.28;99375.16;7363650;19;20015;-59
2022/10/22 05:50:37;;;;;;;0.00;0.00;;;;;;;13.68;78.29;99377.78;7363020;19;20014;-59
2022/10/22 05:53:04;;;;;;;0.05;0.05;;;;;;;13.61;78.23;99382.53;7361879;19;20015;-58
2022/10/22 05:55:35;;;;;;;0.00;0.00;;;;;;;13.60;78.20;99388.72;7361985;19;20026;-57
2022/10/22 05:58:01;;;;;;;0.00;0.00;;;;;;;13.56;77.80;99392.44;7354784;19;20015;-59
2022/10/22 06:00:27;;;;;;;0.05;0.05;;;;;;;13.52;77.89;99379.56;7360884;19;20036;-59
2022/10/22 06:02:52;;;;;;;0.00;0.00;;;;;;;13.47;77.94;99385.06;7363903;19;20010;-57
2022/10/22 06:05:17;;;;;;;0.05;0.05;;;;;;;13.48;77.99;99392.00;7364088;19;20020;-58
2022/10/22 06:07:43;;;;;;;0.00;0.00;;;;;;;13.43;78.40;99386.16;7363386;19;20029;-59
2022/10/22 06:10:14;;;;;;;0.00;0.00;;;;;;;13.43;78.01;99397.53;7363008;19;20026;-59
2022/10/22 06:12:39;;;;;;;0.00;0.00;;;;;;;13.28;77.58;99393.13;7365469;19;20018;-59
2022/10/22 06:15:06;;;;;;;0.00;0.00;;;;;;;13.35;78.10;99420.69;7362409;19;20023;-58
2022/10/22 06:17:31;;;;;;;0.00;0.00;;;;;;;13.34;78.07;99418.16;7364617;19;20010;-58
2022/10/22 06:19:57;;;;;;;0.00;0.00;;;;;;;13.31;78.28;99418.31;7362244;19;20094;-59
2022/10/22 06:22:22;;;;;;;0.00;0.00;;;;;;;13.27;78.10;99429.91;7364640;19;20022;-58
2022/10/22 06:24:47;;;;;;;0.00;0.00;;;;;;;13.26;78.42;99442.16;7362260;19;20093;-58
2022/10/22 06:27:13;;;;;;;0.00;0.00;;;;;;;13.23;77.89;99443.19;7362383;19;20033;-58
2022/10/22 06:29:38;;;;;;;0.00;0.00;;;;;;;13.23;77.90;99443.19;7359747;19;20591;-58
2022/10/22 06:32:04;;;;;;;0.00;0.00;;;;;;;13.21;78.22;99445.03;7360988;19;20022;-59
2022/10/22 06:34:29;;;;;;;0.00;0.00;;;;;;;13.17;77.67;99451.31;7365579;19;20617;-59
2022/10/22 06:36:54;;;;;;;0.00;0.00;;;;;;;13.17;78.40;99461.81;7351383;19;20014;-58
2022/10/22 06:39:20;;;;;;;0.00;0.00;;;;;;;13.15;78.16;99468.06;7360689;19;20430;-58
2022/10/22 06:41:45;;;;;;;0.00;0.00;;;;;;;13.15;78.47;99465.44;7362568;19;20003;-58
2022/10/22 06:44:14;;;;;;;0.00;0.00;;;;;;;13.14;78.78;99485.56;7364661;19;20006;-58
2022/10/22 06:46:39;;;;;;;0.00;0.00;;;;;;;13.10;78.84;99473.56;7363683;19;20010;-58
2022/10/22 06:49:05;;;;;;;0.00;0.00;;;;;;;13.13;78.27;99478.66;7363957;19;20011;-58
2022/10/22 06:51:30;;;;;;;0.00;0.00;;;;;;;12.99;78.43;99465.41;7360027;19;20074;-58
2022/10/22 06:53:57;;;;;;;0.00;0.00;;;;;;;13.04;79.00;99479.13;7363315;19;20026;-55
2022/10/22 06:56:24;;;;;;;0.00;0.00;;;;;;;13.11;78.81;99490.97;7362219;19;20014;-58
2022/10/22 06:58:51;;;;;;;0.00;0.00;;;;;;;13.11;78.71;99492.75;7361584;19;20634;-58
2022/10/22 07:01:19;;;;;;;0.00;0.00;;;;;;;13.12;78.73;99500.53;7363861;19;20010;-58
2022/10/22 07:03:44;;;;;;;0.00;0.00;;;;;;;13.12;78.93;99505.75;7363433;19;20013;-58
2022/10/22 07:06:13;;;;;;;0.00;0.00;;;;;;;13.15;79.05;99513.47;7362349;19;20470;-58
2022/10/22 07:08:40;;;;;;;0.00;0.00;;;;;;;13.15;78.62;99508.22;7364177;19;20026;-59
2022/10/22 07:11:16;;;;;;;0.00;0.00;;;;;;;13.11;78.93;99503.22;7362537;19;20022;-58
2022/10/22 07:13:42;;;;;;;0.00;0.00;;;;;;;13.17;78.84;99527.34;7361715;19;20108;-58
2022/10/22 07:16:08;;;;;;;0.00;0.00;;;;;;;13.17;78.73;99511.59;7361319;19;21332;-58
2022/10/22 07:18:35;;;;;;;0.00;0.00;;;;;;;13.10;78.59;99510.25;7357064;19;20549;-58
2022/10/22 07:21:01;;;;;;;0.08;0.08;;;;;;;13.19;78.58;99520.25;7363013;19;20485;-58
2022/10/22 07:23:27;;;;;;;0.10;0.10;;;;;;;13.22;78.75;99530.59;7362041;19;20017;-58
2022/10/22 07:25:53;;;;;;;0.00;0.00;;;;;;;13.27;79.05;99545.25;7357752;19;20014;-58
2022/10/22 07:28:19;;;;;;;0.00;0.00;;;;;;;13.29;78.75;99540.78;7353759;19;20006;-57
2022/10/22 07:30:45;;;;;;;0.00;0.00;;;;;;;13.30;78.41;99547.72;7362656;19;20015;-56
2022/10/22 07:33:11;;;;;;;0.10;0.10;;;;;;;13.31;78.73;99554.66;7356561;19;20006;-58
2022/10/22 07:35:38;;;;;;;0.08;0.08;;;;;;;13.35;78.15;99553.56;7358775;19;20039;-58
2022/10/22 07:38:04;;;;;;;0.00;0.00;;;;;;;13.38;77.87;99569.13;7360956;19;20015;-57
2022/10/22 07:40:29;;;;;;;0.10;0.10;;;;;;;13.41;77.87;99566.34;7358923;19;20039;-58
2022/10/22 07:42:55;;;;;;;0.00;0.00;;;;;;;13.44;78.37;99571.44;7365726;19;20014;-57
2022/10/22 07:45:20;;;;;;;0.03;0.03;;;;;;;13.45;78.39;99570.50;7364731;19;20052;-58
2022/10/22 07:47:47;;;;;;;0.00;0.00;;;;;;;13.48;78.73;99572.97;7365231;19;20491;-58
2022/10/22 07:50:12;;;;;;;0.00;0.00;;;;;;;13.52;78.49;99579.75;7364433;19;20006;-58
2022/10/22 07:52:38;;;;;;;0.00;0.00;;;;;;;13.57;78.47;99598.72;7361772;19;20010;-57
2022/10/22 07:55:04;;;;;;;0.00;0.00;;;;;;;13.61;77.81;99588.91;7359623;19;20006;-58
2022/10/22 07:57:30;;;;;;;0.00;0.00;;;;;;;13.63;78.17;99587.88;7359761;19;20021;-58
2022/10/22 07:59:57;;;;;;;0.00;0.00;;;;;;;13.66;78.44;99603.47;7355452;19;20010;-57
2022/10/22 08:02:22;;;;;;;0.00;0.00;;;;;;;13.70;77.92;99589.28;7360193;19;20560;-58
2022/10/22 08:04:48;;;;;;;0.00;0.00;;;;;;;13.79;78.23;99602.81;7349346;19;20003;-57
2022/10/22 08:07:13;;;;;;;0.00;0.00;;;;;;;13.90;78.47;99613.59;7359010;19;20007;-58
2022/10/22 08:09:39;;;;;;;0.00;0.00;;;;;;;14.00;77.81;99601.69;7364171;19;20675;-58
2022/10/22 08:12:04;;;;;;;0.00;0.00;;;;;;;14.13;77.55;99607.94;7359419;19;20842;-58
2022/10/22 08:14:30;;;;;;;0.00;0.00;;;;;;;14.16;77.62;99592.03;7361889;19;20006;-57
2022/10/22 08:16:55;;;;;;;0.00;0.00;;;;;;;14.38;77.57;99617.09;7360333;19;20006;-58
2022/10/22 08:19:21;;;;;;;0.00;0.00;;;;;;;14.51;77.70;99613.75;7361979;19;20022;-58
2022/10/22 08:21:46;;;;;;;0.00;0.00;;;;;;;14.63;76.98;99619.22;7360820;19;20014;-58
2022/10/22 08:24:13;;;;;;;0.00;0.00;;;;;;;14.73;76.13;99623.88;7361257;19;20014;-58
2022/10/22 08:26:38;;;;;;;0.00;0.00;;;;;;;14.81;75.07;99625.22;7360732;19;20109;-56
2022/10/22 08:29:04;;;;;;;0.00;0.00;;;;;;;14.78;74.97;99611.31;7362427;19;20026;-58
2022/10/22 08:31:29;;;;;;;0.00;0.00;;;;;;;14.85;74.62;99635.47;7363107;19;20023;-58
2022/10/22 08:33:54;;;;;;;0.00;0.00;;;;;;;14.91;75.65;99636.91;7350169;19;20093;-58
2022/10/22 08:36:20;;;;;;;0.00;0.00;;;;;;;14.98;75.81;99644.34;7363751;19;20710;-58
2022/10/22 08:38:45;;;;;;;0.00;0.00;;;;;;;15.05;74.97;99650.09;7358524;19;20017;-58
2022/10/22 08:41:19;;;;;;;0.00;0.00;;;;;;;15.21;75.09;99645.66;7362954;19;20035;-58
2022/10/22 08:44:03;;;;;;;0.00;0.00;;;;;;;15.40;75.04;99639.28;7360919;19;20761;-57
2022/10/22 08:46:44;;;;;;;0.05;0.05;;;;;;;15.57;74.82;99642.59;7364286;19;20007;-56
2022/10/22 08:49:20;;;;;;;0.00;0.00;;;;;;;15.81;74.52;99642.94;7359213;19;20040;-58
2022/10/22 08:51:45;;;;;;;0.00;0.00;;;;;;;15.94;74.00;99655.34;7362688;19;20409;-57
2022/10/22 08:54:26;;;;;;;0.00;0.00;;;;;;;16.19;73.52;99647.63;7360982;19;20021;-57
2022/10/22 08:57:21;;;;;;;0.00;0.00;;;;;;;16.35;73.21;99656.25;7362716;19;20006;-56
2022/10/22 08:59:56;;;;;;;0.10;0.10;;;;;;;16.53;70.84;99656.88;7263255;19;2004359;-58
2022/10/22 09:02:50;;;;;;;0.00;0.00;;;;;;;16.71;72.11;99667.16;7362196;19;20885;-58
2022/10/22 09:05:24;;;;;;;0.00;0.00;;;;;;;16.86;71.08;99659.13;7263216;19;2004544;-58
2022/10/22 09:07:50;;;;;;;0.00;0.00;;;;;;;16.95;69.57;99665.63;7364978;19;20019;-58
2022/10/22 09:10:23;;;;;;;0.00;0.00;;;;;;;17.17;71.31;99665.03;7368147;19;20019;-58
2022/10/22 09:12:48;;;;;;;0.00;0.00;;;;;;;17.30;70.02;99667.72;7365777;19;20007;-58
2022/10/22 09:15:16;;;;;;;0.08;0.08;;;;;;;17.54;68.86;99675.78;7364490;19;20017;-57
2022/10/22 09:18:20;;;;;;;;;;;;;;;17.83;72.06;99679.91;7365803;19;20021;-56
2022/10/22 09:21:02;;;;;;;0.00;0.00;;;;;;;17.95;70.15;99685.31;7258638;19;2004722;-58
2022/10/22 09:24:02;;;;;;;0.03;0.03;;;;;;;18.07;69.21;99676.53;7359388;19;20031;-58
2022/10/22 09:26:27;;;;;;;0.05;0.05;;;;;;;18.06;66.81;99686.25;7260922;19;2004252;-57
2022/10/22 09:28:52;;;;;;;0.08;0.08;;;;;;;17.95;65.87;99666.84;7361297;19;20011;-57
2022/10/22 09:31:18;;;;;;;0.00;0.00;;;;;;;17.89;65.44;99666.31;7363014;19;20093;-58
2022/10/22 09:33:47;;;;;;;0.00;0.00;;;;;;;18.05;66.89;99692.50;7357467;19;20032;-55
2022/10/22 09:36:17;;;;;;;0.00;0.00;;;;;;;18.17;66.62;99692.59;7363095;19;20018;-56
2022/10/22 09:38:50;;;;;;;0.10;0.10;;;;;;;18.34;69.34;99694.88;7360256;19;20113;-58
2022/10/22 09:41:17;;;;;;;0.00;0.00;;;;;;;18.39;66.28;99682.19;7364635;19;20117;-56
2022/10/22 09:43:46;;;;;;;0.00;0.00;;;;;;;18.60;66.91;99669.22;7363845;19;20030;-57
2022/10/22 09:46:19;;;;;;;0.10;0.10;;;;;;;18.78;67.66;99683.78;7360229;19;20018;-57
2022/10/22 09:49:09;;;;;;;0.00;0.00;;;;;;;18.92;69.04;99665.09;7365642;19;20017;-59
2022/10/22 09:51:56;;;;;;;0.10;0.10;;;;;;;19.24;68.52;99679.56;7365713;19;20002;-58
2022/10/22 09:54:24;;;;;;;0.08;0.08;;;;;;;19.41;66.06;99681.75;7362666;19;20015;-58
2022/10/22 09:56:51;;;;;;;0.00;0.00;;;;;;;19.55;63.74;99688.66;7364055;19;20561;-58
2022/10/22 09:59:23;;;;;;;0.10;0.10;;;;;;;19.61;63.71;99682.94;7365464;19;20078;-58
2022/10/22 10:01:56;;;;;;;0.10;0.10;;;;;;;19.83;64.35;99696.22;7364224;19;20030;-56
2022/10/22 10:04:21;;;;;;;0.00;0.00;;;;;;;19.85;63.57;99696.94;7361526;19;20014;-58
2022/10/22 10:06:54;;;;;;;0.10;0.10;;;;;;;20.04;64.40;99699.03;7365535;19;20010;-58
2022/10/22 10:09:23;;;;;;;0.00;0.00;;;;;;;20.15;62.21;99698.19;7363753;19;20006;-57
2022/10/22 10:12:05;;;;;;;0.00;0.00;;;;;;;20.33;62.70;99698.53;7363802;19;20010;-57
2022/10/22 10:14:33;;;;;;;0.00;0.00;;;;;;;20.51;61.67;99704.22;7363175;19;20456;-58
2022/10/22 10:17:03;;;;;;;0.03;0.03;;;;;;;20.53;60.29;99705.78;7365824;19;20014;-58
2022/10/22 10:19:59;;;;;;;0.00;0.00;;;;;;;20.79;62.42;99714.31;7363184;19;20709;-57
2022/10/22 10:22:43;;;;;;;0.10;0.10;;;;;;;20.81;58.67;99720.31;7263692;19;2004556;-58
2022/10/22 10:26:01;;;;;;;0.00;0.00;;;;;;;21.11;61.83;99713.47;7363953;19;20006;-58
2022/10/22 10:28:34;;;;;;;0.00;0.00;;;;;;;21.11;57.19;99724.09;7259146;19;2004397;-56
2022/10/22 10:31:16;;;;;;;0.00;0.00;;;;;;;21.32;59.03;99742.75;7365311;19;20014;-58
2022/10/22 10:34:22;;;;;;;0.00;0.00;;;;;;;21.48;59.99;99728.06;7357500;19;20037;-57
2022/10/22 10:36:55;;;;;;;0.10;0.10;;;;;;;21.45;55.33;99728.34;7254486;19;2004758;-57
2022/10/22 10:39:38;;;;;;;0.00;0.00;;;;;;;21.62;59.71;99728.75;7358491;19;20014;-58
2022/10/22 10:42:26;;;;;;;0.00;0.00;;;;;;;21.80;59.00;99735.16;7360864;19;20010;-58
2022/10/22 10:45:00;;;;;;;0.03;0.03;;;;;;;22.06;59.75;99740.09;7362947;19;20050;-57
2022/10/22 10:47:40;;;;;;;0.10;0.10;;;;;;;22.17;57.30;99732.88;7362628;19;20041;-58
2022/10/22 10:50:44;;;;;;;0.00;0.00;;;;;;;22.49;60.64;99740.72;7364773;19;20003;-58
2022/10/22 10:53:24;;;;;;;0.00;0.00;;;;;;;22.68;56.64;99723.97;7260020;19;2004616;-57
2022/10/22 10:55:55;;;;;;;0.10;0.10;;;;;;;22.84;57.06;99744.75;7354513;19;20460;-56
2022/10/22 10:58:34;;;;;;;0.00;0.00;;;;;;;23.08;55.68;99724.94;7364546;19;20057;-58
2022/10/22 11:01:30;;;;;;;0.10;0.10;;;;;;;23.29;57.43;99742.47;7361911;19;20013;-58
2022/10/22 11:04:23;;;;;;;0.10;0.10;;;;;;;23.54;56.31;99733.06;7261360;19;2004319;-57
2022/10/22 11:06:54;;;;;;;0.10;0.10;;;;;;;23.62;51.37;99744.81;7363393;19;20011;-58
2022/10/22 11:09:39;;;;;;;0.10;0.10;;;;;;;23.77;55.06;99738.09;7362510;19;20017;-58
2022/10/22 11:12:14;;;;;;;0.00;0.00;;;;;;;23.88;52.07;99750.47;7362289;19;20025;-57
2022/10/22 11:15:06;;;;;;;0.00;0.00;;;;;;;24.11;52.31;99737.63;7363251;19;20002;-57
2022/10/22 11:17:41;;;;;;;0.10;0.10;;;;;;;24.03;52.15;99723.19;7260686;19;2004298;-58
2022/10/22 11:20:16;;;;;;;0.10;0.10;;;;;;;24.15;49.17;99737.19;7363263;19;20018;-57
2022/10/22 11:22:47;;;;;;;0.00;0.00;;;;;;;24.35;50.05;99748.63;7361920;19;20037;-58
2022/10/22 11:25:28;;;;;;;0.10;0.10;;;;;;;24.52;53.22;99752.38;7362423;19;20003;-58
2022/10/22 11:28:15;;;;;;;0.10;0.10;;;;;;;24.59;51.24;99730.28;7361134;19;20030;-57
2022/10/22 11:30:44;;;;;;;0.10;0.10;;;;;;;24.77;47.49;99743.66;7362763;19;20015;-56
2022/10/22 11:33:15;;;;;;;0.10;0.10;;;;;;;24.93;45.68;99740.34;7360756;19;20370;-58
2022/10/22 11:35:43;;;;;;;0.00;0.00;;;;;;;25.02;46.49;99749.28;7360769;19;20010;-56
2022/10/22 11:38:15;;;;;;;0.00;0.00;;;;;;;24.98;46.92;99724.69;7361469;19;20581;-58
2022/10/22 11:41:00;;;;;;;0.10;0.10;;;;;;;25.16;48.54;99739.97;7360089;19;20118;-58
2022/10/22 11:43:25;;;;;;;0.10;0.10;;;;;;;25.22;45.00;99744.69;7360418;19;20015;-58
2022/10/22 11:45:59;;;;;;;0.10;0.10;;;;;;;25.43;45.59;99758.56;7361467;19;20041;-57
2022/10/22 11:48:27;;;;;;;0.00;0.00;;;;;;;25.45;44.53;99745.91;7354334;19;20006;-57